Time;durP1;ratioP1;P1;durP2;ratioP2;P2;SDS_P1;SDS_P2;PMS_P1;PMS_P2;Temp;Humidity;BMP_temperature;BMP_pressure;BME280_temperature;BME280_humidity;BME280_pressure;Samples;Min_cycle;Max_cycle;Signal;HPM_P1;HPM_P2
2023/06/27 00:02:12;;;;;;;5.88;1.85;;;;;;;;;;5052596;28;20076;-78
2023/06/27 00:04:41;;;;;;;4.28;2.03;;;;;;;;;;5053325;28;20045;-77
2023/06/27 00:07:10;;;;;;;6.20;1.83;;;;;;;;;;5053338;28;20073;-76
2023/06/27 00:09:38;;;;;;;5.53;2.08;;;;;;;;;;5052603;28;20080;-77
2023/06/27 00:12:05;;;;;;;3.53;1.77;;;;;;;;;;5053175;28;20052;-77
2023/06/27 00:14:37;;;;;;;5.18;1.90;;;;;;;;;;5052483;28;20140;-76
2023/06/27 00:17:04;;;;;;;5.90;1.95;;;;;;;;;;5052663;28;20084;-77
2023/06/27 00:19:31;;;;;;;5.50;2.17;;;;;;;;;;5054384;28;20499;-78
2023/06/27 00:21:59;;;;;;;3.90;1.95;;;;;;;;;;5072734;28;20059;-77
2023/06/27 00:24:25;;;;;;;6.13;3.10;;;;;;;;;;5061334;28;20551;-77
2023/06/27 00:26:52;;;;;;;5.13;1.88;;;;;;;;;;5077103;28;20083;-76
2023/06/27 00:29:19;;;;;;;4.53;1.95;;;;;;;;;;5069328;28;20052;-77
2023/06/27 00:31:45;;;;;;;3.92;1.80;;;;;;;;;;5052798;28;20476;-77
2023/06/27 00:34:12;;;;;;;5.80;2.10;;;;;;;;;;5059914;28;20048;-77
2023/06/27 00:36:39;;;;;;;4.25;1.90;;;;;;;;;;5068184;28;20040;-79
2023/06/27 00:39:07;;;;;;;4.72;1.67;;;;;;;;;;5068652;28;20562;-77
2023/06/27 00:41:33;;;;;;;4.18;1.95;;;;;;;;;;5052631;28;20045;-78
2023/06/27 00:44:00;;;;;;;4.75;1.83;;;;;;;;;;5053033;28;20132;-78
2023/06/27 00:46:35;;;;;;;5.20;1.95;;;;;;;;;;5054596;28;20069;-78
2023/06/27 00:49:02;;;;;;;7.20;1.63;;;;;;;;;;5060846;28;20136;-78
2023/06/27 00:51:30;;;;;;;3.45;1.48;;;;;;;;;;5053640;28;20434;-77
2023/06/27 00:53:57;;;;;;;3.85;1.85;;;;;;;;;;5055550;28;20137;-78
2023/06/27 00:56:26;;;;;;;6.30;2.08;;;;;;;;;;5054393;28;20072;-77
2023/06/27 00:58:54;;;;;;;6.00;1.80;;;;;;;;;;5053163;28;20053;-78
2023/06/27 01:01:21;;;;;;;4.65;1.98;;;;;;;;;;5054881;28;20076;-77
2023/06/27 01:03:48;;;;;;;8.05;2.20;;;;;;;;;;5056427;28;20048;-77
2023/06/27 01:06:19;;;;;;;4.25;2.10;;;;;;;;;;5057117;28;20486;-78
2023/06/27 01:08:57;;;;;;;4.80;1.80;;;;;;;;;;5056770;28;20048;-77
2023/06/27 01:11:28;;;;;;;5.40;2.08;;;;;;;;;;5061715;28;20045;-78
2023/06/27 01:13:57;;;;;;;4.22;1.90;;;;;;;;;;5084917;28;20056;-77
2023/06/27 01:16:29;;;;;;;6.25;2.35;;;;;;;;;;5086229;28;20128;-77
2023/06/27 01:18:58;;;;;;;4.10;1.88;;;;;;;;;;5072024;28;20048;-77
2023/06/27 01:21:26;;;;;;;4.18;1.90;;;;;;;;;;5054023;28;20424;-78
2023/06/27 01:23:55;;;;;;;6.03;2.50;;;;;;;;;;5062399;28;20495;-78
2023/06/27 01:26:23;;;;;;;4.28;1.80;;;;;;;;;;5061732;28;20073;-78
2023/06/27 01:28:50;;;;;;;4.03;1.90;;;;;;;;;;5052910;28;20139;-78
2023/06/27 01:31:24;;;;;;;5.75;1.98;;;;;;;;;;5049120;28;20045;-78
2023/06/27 01:33:55;;;;;;;5.57;2.08;;;;;;;;;;5060263;28;20132;-77
2023/06/27 01:36:27;;;;;;;4.50;1.98;;;;;;;;;;5076540;28;20044;-78
2023/06/27 01:38:59;;;;;;;5.00;1.67;;;;;;;;;;5075481;28;20052;-78
2023/06/27 01:41:28;;;;;;;6.70;2.10;;;;;;;;;;5038573;28;20046;-77
2023/06/27 01:43:56;;;;;;;5.65;1.90;;;;;;;;;;5068445;28;20123;-78
2023/06/27 01:46:24;;;;;;;4.60;1.90;;;;;;;;;;5067675;28;20465;-77
2023/06/27 01:48:52;;;;;;;5.38;1.95;;;;;;;;;;5064557;28;20045;-77
2023/06/27 01:51:19;;;;;;;3.83;1.70;;;;;;;;;;5061766;28;20048;-78
2023/06/27 01:53:46;;;;;;;5.25;1.98;;;;;;;;;;5064169;28;20532;-77
2023/06/27 01:56:14;;;;;;;4.63;1.60;;;;;;;;;;5055682;28;20490;-77
2023/06/27 01:58:41;;;;;;;5.70;2.03;;;;;;;;;;5065447;28;20048;-77
2023/06/27 02:01:09;;;;;;;4.93;1.80;;;;;;;;;;5064589;28;20090;-77
2023/06/27 02:03:35;;;;;;;4.93;1.77;;;;;;;;;;5065241;28;20041;-77
2023/06/27 02:06:02;;;;;;;3.58;1.88;;;;;;;;;;5074597;28;20091;-77
2023/06/27 02:08:29;;;;;;;5.65;2.17;;;;;;;;;;5065621;28;20049;-76
2023/06/27 02:10:55;;;;;;;4.22;1.90;;;;;;;;;;5067749;28;20570;-77
2023/06/27 02:13:23;;;;;;;5.20;1.98;;;;;;;;;;5075569;28;20127;-77
2023/06/27 02:15:50;;;;;;;6.00;2.35;;;;;;;;;;5062435;28;20148;-77
2023/06/27 02:18:16;;;;;;;4.47;1.98;;;;;;;;;;5063562;28;20468;-77
2023/06/27 02:20:43;;;;;;;5.15;2.10;;;;;;;;;;5066903;28;20480;-77
2023/06/27 02:23:10;;;;;;;3.97;2.10;;;;;;;;;;5076319;28;20064;-77
2023/06/27 02:25:36;;;;;;;4.68;2.00;;;;;;;;;;5071891;28;20049;-78
2023/06/27 02:28:04;;;;;;;4.65;2.00;;;;;;;;;;5067300;28;20140;-78
2023/06/27 02:30:32;;;;;;;4.07;1.95;;;;;;;;;;5064655;28;20040;-78
2023/06/27 02:32:58;;;;;;;4.25;1.77;;;;;;;;;;5061257;28;20127;-77
2023/06/27 02:35:25;;;;;;;5.72;2.47;;;;;;;;;;5057936;28;20518;-77
2023/06/27 02:37:52;;;;;;;5.05;2.00;;;;;;;;;;5054246;28;20045;-77
2023/06/27 02:40:18;;;;;;;4.80;1.92;;;;;;;;;;5066913;28;20871;-77
2023/06/27 02:42:45;;;;;;;5.40;1.90;;;;;;;;;;5074108;28;20118;-77
2023/06/27 02:45:12;;;;;;;4.85;1.98;;;;;;;;;;5066684;28;20068;-78
2023/06/27 02:47:40;;;;;;;4.20;1.95;;;;;;;;;;5053624;28;20709;-77
2023/06/27 02:50:07;;;;;;;4.47;1.85;;;;;;;;;;5053091;28;20080;-76
2023/06/27 02:52:33;;;;;;;3.85;1.90;;;;;;;;;;5064424;28;20060;-77
2023/06/27 02:55:00;;;;;;;6.47;2.33;;;;;;;;;;5068695;28;20045;-77
2023/06/27 02:57:27;;;;;;;4.38;2.10;;;;;;;;;;5072212;28;20127;-77
2023/06/27 02:59:53;;;;;;;4.93;2.08;;;;;;;;;;5063089;28;20056;-77
2023/06/27 03:02:20;;;;;;;4.45;1.85;;;;;;;;;;5065063;28;20051;-77
2023/06/27 03:04:48;;;;;;;5.78;2.00;;;;;;;;;;5063745;28;20045;-77
2023/06/27 03:07:15;;;;;;;5.55;2.10;;;;;;;;;;5061514;28;20049;-77
2023/06/27 03:09:41;;;;;;;4.93;1.90;;;;;;;;;;5052759;28;20131;-77
2023/06/27 03:12:09;;;;;;;3.60;2.03;;;;;;;;;;5053123;28;20127;-77
2023/06/27 03:14:36;;;;;;;6.78;2.30;;;;;;;;;;5052871;28;20055;-77
2023/06/27 03:17:02;;;;;;;6.07;2.00;;;;;;;;;;5058288;28;20110;-77
2023/06/27 03:19:29;;;;;;;4.63;2.00;;;;;;;;;;5058700;28;20048;-77
2023/06/27 03:21:57;;;;;;;3.80;2.08;;;;;;;;;;5062140;28;20722;-77
2023/06/27 03:24:24;;;;;;;5.10;1.75;;;;;;;;;;5062249;28;20124;-77
2023/06/27 03:26:50;;;;;;;4.88;2.05;;;;;;;;;;5064637;28;20446;-77
2023/06/27 03:29:17;;;;;;;4.80;2.22;;;;;;;;;;5057057;28;20139;-79
2023/06/27 03:31:43;;;;;;;6.45;2.47;;;;;;;;;;5052526;28;20127;-77
2023/06/27 03:34:10;;;;;;;5.63;2.10;;;;;;;;;;5055205;28;20140;-77
2023/06/27 03:36:37;;;;;;;5.03;1.90;;;;;;;;;;5056788;28;20519;-76
2023/06/27 03:39:05;;;;;;;6.20;1.95;;;;;;;;;;5063336;28;20041;-77
2023/06/27 03:41:32;;;;;;;4.50;1.88;;;;;;;;;;5065769;28;20049;-77
2023/06/27 03:43:58;;;;;;;4.82;1.95;;;;;;;;;;5060698;28;20084;-77
2023/06/27 03:46:25;;;;;;;4.00;1.80;;;;;;;;;;5060817;28;20076;-77
2023/06/27 03:48:56;;;;;;;4.50;2.05;;;;;;;;;;5060231;28;20057;-77
2023/06/27 03:51:23;;;;;;;4.45;2.10;;;;;;;;;;5052853;28;20075;-77
2023/06/27 03:53:50;;;;;;;4.50;2.03;;;;;;;;;;5064634;28;20052;-78
2023/06/27 03:56:18;;;;;;;6.05;2.13;;;;;;;;;;5073694;28;20072;-77
2023/06/27 03:58:44;;;;;;;4.15;1.90;;;;;;;;;;5064432;28;20041;-77
2023/06/27 04:01:12;;;;;;;2.90;1.70;;;;;;;;;;5057435;28;20495;-76
2023/06/27 04:03:38;;;;;;;4.97;2.25;;;;;;;;;;5059502;28;20058;-78
2023/06/27 04:06:05;;;;;;;5.03;2.75;;;;;;;;;;5060772;28;20041;-78
2023/06/27 04:08:32;;;;;;;6.72;1.90;;;;;;;;;;5060128;28;20049;-77
2023/06/27 04:10:58;;;;;;;6.80;2.10;;;;;;;;;;5059356;28;20076;-77
2023/06/27 04:13:26;;;;;;;6.15;1.95;;;;;;;;;;5058855;28;20075;-76
2023/06/27 04:15:53;;;;;;;5.15;1.90;;;;;;;;;;5057105;28;20065;-78
2023/06/27 04:18:20;;;;;;;6.10;2.30;;;;;;;;;;5056500;28;20045;-77
2023/06/27 04:20:46;;;;;;;5.93;2.22;;;;;;;;;;5055539;28;20412;-78
2023/06/27 04:23:13;;;;;;;5.28;2.10;;;;;;;;;;5056670;28;20075;-76
2023/06/27 04:25:43;;;;;;;4.90;1.92;;;;;;;;;;5055696;28;20125;-76
2023/06/27 04:28:10;;;;;;;5.63;2.08;;;;;;;;;;5051537;28;20083;-76
2023/06/27 04:30:38;;;;;;;5.90;2.10;;;;;;;;;;5056334;28;20041;-76
2023/06/27 04:33:04;;;;;;;6.55;2.47;;;;;;;;;;5054024;28;20065;-76
2023/06/27 04:35:31;;;;;;;5.82;2.20;;;;;;;;;;5051998;28;20118;-76
2023/06/27 04:37:58;;;;;;;6.18;2.83;;;;;;;;;;5053950;28;20045;-77
2023/06/27 04:40:24;;;;;;;4.10;2.22;;;;;;;;;;5054429;28;20647;-77
2023/06/27 04:42:51;;;;;;;6.43;2.22;;;;;;;;;;5070719;28;20048;-77
2023/06/27 04:45:18;;;;;;;5.03;2.28;;;;;;;;;;5077449;28;20052;-76
2023/06/27 04:47:46;;;;;;;7.57;2.47;;;;;;;;;;5067481;28;20135;-76
2023/06/27 04:50:18;;;;;;;4.63;1.95;;;;;;;;;;5059612;28;20084;-77
2023/06/27 04:52:44;;;;;;;3.92;2.00;;;;;;;;;;5056550;28;20060;-78
2023/06/27 04:55:12;;;;;;;5.97;2.28;;;;;;;;;;5062348;28;20071;-78
2023/06/27 04:57:39;;;;;;;9.77;3.20;;;;;;;;;;5061085;28;20044;-78
2023/06/27 05:00:09;;;;;;;4.00;2.20;;;;;;;;;;5060966;28;20083;-77
2023/06/27 05:02:36;;;;;;;7.25;2.30;;;;;;;;;;5059254;28;20052;-78
2023/06/27 05:05:07;;;;;;;6.63;2.42;;;;;;;;;;5059257;28;20069;-76
2023/06/27 05:07:34;;;;;;;4.97;1.90;;;;;;;;;;5067615;28;20056;-77
2023/06/27 05:10:01;;;;;;;7.93;2.38;;;;;;;;;;5065281;28;20488;-77
2023/06/27 05:12:27;;;;;;;4.53;1.92;;;;;;;;;;5064276;28;20072;-78
2023/06/27 05:14:54;;;;;;;3.83;2.00;;;;;;;;;;5065020;28;20120;-76
2023/06/27 05:17:20;;;;;;;4.35;1.88;;;;;;;;;;5064820;28;20473;-78
2023/06/27 05:19:47;;;;;;;4.63;1.88;;;;;;;;;;5065501;28;20049;-78
2023/06/27 05:22:15;;;;;;;5.90;2.35;;;;;;;;;;5065508;28;20132;-77
2023/06/27 05:24:41;;;;;;;5.10;2.20;;;;;;;;;;5066037;28;20085;-76
2023/06/27 05:27:08;;;;;;;5.32;2.17;;;;;;;;;;5065766;28;20087;-76
2023/06/27 05:29:35;;;;;;;3.40;1.90;;;;;;;;;;5069417;28;20140;-75
2023/06/27 05:32:02;;;;;;;6.15;2.17;;;;;;;;;;5064483;28;20049;-77
2023/06/27 05:34:28;;;;;;;5.32;1.95;;;;;;;;;;5064258;28;20079;-77
2023/06/27 05:36:55;;;;;;;4.35;2.55;;;;;;;;;;5065895;28;20120;-78
2023/06/27 05:39:23;;;;;;;5.68;2.13;;;;;;;;;;5065472;28;20081;-78
2023/06/27 05:41:50;;;;;;;5.38;1.90;;;;;;;;;;5078316;28;20143;-78
2023/06/27 05:44:16;;;;;;;5.13;2.38;;;;;;;;;;5085133;28;20075;-78
2023/06/27 05:46:48;;;;;;;5.03;2.35;;;;;;;;;;5071252;28;20045;-77
2023/06/27 05:49:15;;;;;;;3.22;1.70;;;;;;;;;;5074687;28;20053;-77
2023/06/27 05:51:42;;;;;;;5.80;2.60;;;;;;;;;;5065839;28;20041;-79
2023/06/27 05:54:09;;;;;;;5.20;1.90;;;;;;;;;;5060818;28;20557;-79
2023/06/27 05:56:37;;;;;;;5.80;2.35;;;;;;;;;;5077167;28;20064;-76
2023/06/27 05:59:04;;;;;;;4.28;2.22;;;;;;;;;;5083284;28;20068;-78
2023/06/27 06:01:31;;;;;;;6.80;3.63;;;;;;;;;;5077181;28;20044;-78
2023/06/27 06:03:58;;;;;;;5.30;3.13;;;;;;;;;;5084082;28;20060;-77
2023/06/27 06:06:24;;;;;;;6.45;2.55;;;;;;;;;;5083916;28;20499;-77
2023/06/27 06:08:51;;;;;;;6.97;2.67;;;;;;;;;;5083305;28;20136;-77
2023/06/27 06:11:17;;;;;;;7.07;2.80;;;;;;;;;;5088181;28;20055;-77
2023/06/27 06:13:46;;;;;;;5.47;2.78;;;;;;;;;;5073539;28;20117;-76
2023/06/27 06:16:12;;;;;;;6.95;2.83;;;;;;;;;;5078331;28;20036;-77
2023/06/27 06:18:39;;;;;;;6.40;2.72;;;;;;;;;;5083860;28;20100;-75
2023/06/27 06:21:07;;;;;;;4.18;2.00;;;;;;;;;;5085832;28;20048;-76
2023/06/27 06:23:34;;;;;;;5.20;2.47;;;;;;;;;;5084694;28;20071;-79
2023/06/27 06:26:00;;;;;;;7.53;2.70;;;;;;;;;;5085886;28;20083;-76
2023/06/27 06:28:27;;;;;;;4.68;2.40;;;;;;;;;;5085961;28;20531;-77
2023/06/27 06:30:55;;;;;;;5.93;2.63;;;;;;;;;;5084868;28;20055;-78
2023/06/27 06:33:23;;;;;;;6.18;3.08;;;;;;;;;;5087679;28;20045;-77
2023/06/27 06:35:50;;;;;;;5.53;2.33;;;;;;;;;;5081247;28;20051;-78
2023/06/27 06:38:16;;;;;;;6.38;2.60;;;;;;;;;;5080768;28;20044;-77
2023/06/27 06:40:44;;;;;;;7.10;4.25;;;;;;;;;;5079388;28;20067;-77
2023/06/27 06:43:10;;;;;;;6.05;3.03;;;;;;;;;;5074721;28;20054;-78
2023/06/27 06:45:37;;;;;;;5.07;2.20;;;;;;;;;;5065822;28;20069;-76
2023/06/27 06:48:06;;;;;;;7.40;2.55;;;;;;;;;;5062531;28;20480;-79
2023/06/27 06:50:33;;;;;;;7.78;2.35;;;;;;;;;;5065017;28;20480;-78
2023/06/27 06:52:59;;;;;;;5.10;2.38;;;;;;;;;;5057007;28;20104;-77
2023/06/27 06:55:26;;;;;;;6.22;2.15;;;;;;;;;;5057131;28;20109;-78
2023/06/27 06:57:52;;;;;;;6.05;2.55;;;;;;;;;;5062075;28;20120;-78
2023/06/27 07:00:20;;;;;;;6.30;2.40;;;;;;;;;;5059810;28;20083;-78
2023/06/27 07:02:47;;;;;;;5.78;2.35;;;;;;;;;;5055528;28;20485;-77
2023/06/27 07:05:15;;;;;;;5.68;1.98;;;;;;;;;;5054474;28;20709;-77
2023/06/27 07:07:42;;;;;;;6.03;2.13;;;;;;;;;;5055429;28;20131;-78
2023/06/27 07:10:09;;;;;;;7.10;2.60;;;;;;;;;;5053680;28;20049;-77
2023/06/27 07:12:36;;;;;;;5.15;2.15;;;;;;;;;;5064101;28;20518;-78
2023/06/27 07:15:11;;;;;;;5.28;2.30;;;;;;;;;;5060804;28;20119;-77
2023/06/27 07:17:38;;;;;;;5.43;2.25;;;;;;;;;;5066101;28;20055;-77
2023/06/27 07:20:08;;;;;;;5.28;2.38;;;;;;;;;;5063512;28;20045;-76
2023/06/27 07:22:36;;;;;;;4.55;2.20;;;;;;;;;;5076306;28;20112;-78
2023/06/27 07:25:03;;;;;;;3.67;2.00;;;;;;;;;;5072080;28;20087;-77
2023/06/27 07:27:30;;;;;;;5.70;2.38;;;;;;;;;;5058135;28;20048;-76
2023/06/27 07:29:57;;;;;;;5.65;2.25;;;;;;;;;;5061667;28;20059;-80
2023/06/27 07:32:24;;;;;;;5.03;2.10;;;;;;;;;;5056409;28;20482;-77
2023/06/27 07:34:50;;;;;;;6.30;1.95;;;;;;;;;;5061456;28;20049;-77
2023/06/27 07:37:17;;;;;;;4.47;2.20;;;;;;;;;;5061713;28;20144;-77
2023/06/27 07:39:45;;;;;;;6.40;2.33;;;;;;;;;;5033221;28;20042;-77
2023/06/27 07:42:12;;;;;;;5.25;2.28;;;;;;;;;;5033064;28;20059;-77
2023/06/27 07:44:38;;;;;;;5.07;2.30;;;;;;;;;;5034788;28;20052;-77
2023/06/27 07:47:05;;;;;;;5.10;1.90;;;;;;;;;;5050978;28;20124;-77
2023/06/27 07:49:32;;;;;;;6.28;2.30;;;;;;;;;;5053915;28;20045;-77
2023/06/27 07:52:01;;;;;;;3.58;1.98;;;;;;;;;;5056338;28;20088;-80
2023/06/27 07:54:28;;;;;;;3.67;1.80;;;;;;;;;;5060576;28;20044;-81
2023/06/27 07:56:56;;;;;;;5.38;1.63;;;;;;;;;;5059352;28;20068;-78
2023/06/27 07:59:23;;;;;;;5.50;1.92;;;;;;;;;;5054011;28;20439;-84
2023/06/27 08:01:51;;;;;;;3.67;1.77;;;;;;;;;;5054540;28;20056;-82
2023/06/27 08:04:17;;;;;;;4.85;2.53;;;;;;;;;;5056086;28;20462;-79
2023/06/27 08:06:44;;;;;;;2.92;1.60;;;;;;;;;;5037847;28;20235;-76
2023/06/27 08:09:11;;;;;;;7.65;2.55;;;;;;;;;;5065743;28;20062;-76
2023/06/27 08:11:38;;;;;;;6.38;1.88;;;;;;;;;;5062048;28;20044;-77
2023/06/27 08:14:06;;;;;;;4.10;1.83;;;;;;;;;;5058583;28;20131;-76
2023/06/27 08:17:03;;;;;;;6.72;1.90;;;;;;;;;;5065084;28;20052;-79
2023/06/27 08:19:29;;;;;;;4.00;1.80;;;;;;;;;;5035969;28;20108;-77
2023/06/27 08:21:56;;;;;;;5.75;2.35;;;;;;;;;;5064440;28;20135;-77
2023/06/27 08:24:23;;;;;;;7.60;2.65;;;;;;;;;;5061355;28;20729;-77
2023/06/27 08:26:52;;;;;;;3.67;2.13;;;;;;;;;;5054701;28;20523;-78
2023/06/27 08:29:20;;;;;;;4.38;2.00;;;;;;;;;;5061376;28;20576;-77
2023/06/27 08:31:49;;;;;;;5.32;2.00;;;;;;;;;;5051159;28;20076;-76
2023/06/27 08:34:16;;;;;;;6.00;1.92;;;;;;;;;;5059697;28;20053;-77
2023/06/27 08:36:42;;;;;;;3.78;2.05;;;;;;;;;;5055322;28;20067;-78
2023/06/27 08:39:09;;;;;;;6.65;2.63;;;;;;;;;;5070227;28;20080;-77
2023/06/27 08:41:36;;;;;;;4.15;2.10;;;;;;;;;;5071697;28;20079;-76
2023/06/27 08:44:02;;;;;;;5.22;2.25;;;;;;;;;;5074639;28;20084;-76
2023/06/27 08:46:33;;;;;;;5.50;2.83;;;;;;;;;;5074724;28;20045;-77
2023/06/27 08:49:03;;;;;;;6.05;2.15;;;;;;;;;;5078059;28;20053;-77
2023/06/27 08:51:31;;;;;;;5.50;2.25;;;;;;;;;;5078160;28;20075;-78
2023/06/27 08:54:05;;;;;;;4.28;2.33;;;;;;;;;;5066234;28;20048;-79
2023/06/27 08:56:32;;;;;;;6.20;2.35;;;;;;;;;;5057992;28;20068;-78
2023/06/27 08:59:07;;;;;;;6.07;2.40;;;;;;;;;;5060239;28;20132;-78
2023/06/27 09:01:38;;;;;;;5.05;2.10;;;;;;;;;;5056385;28;20144;-78
2023/06/27 09:04:05;;;;;;;5.55;2.75;;;;;;;;;;5065611;28;20045;-78
2023/06/27 09:06:32;;;;;;;4.32;2.13;;;;;;;;;;5075628;28;20048;-78
2023/06/27 09:09:00;;;;;;;5.22;1.70;;;;;;;;;;5058760;28;20587;-77
2023/06/27 09:11:28;;;;;;;5.57;2.60;;;;;;;;;;5054667;28;20041;-76
2023/06/27 09:13:55;;;;;;;4.85;2.63;;;;;;;;;;5056334;28;20411;-77
2023/06/27 09:16:21;;;;;;;4.70;2.00;;;;;;;;;;5056131;28;20059;-78
2023/06/27 09:18:50;;;;;;;7.53;2.53;;;;;;;;;;5057769;28;20136;-78
2023/06/27 09:21:20;;;;;;;4.80;2.30;;;;;;;;;;5058644;28;20085;-77
2023/06/27 09:23:49;;;;;;;4.70;2.45;;;;;;;;;;5056769;28;20049;-77
2023/06/27 09:26:16;;;;;;;7.32;2.25;;;;;;;;;;5058090;28;20063;-77
2023/06/27 09:28:47;;;;;;;3.70;2.03;;;;;;;;;;5058161;28;20127;-78
2023/06/27 09:31:14;;;;;;;4.60;2.55;;;;;;;;;;5056544;28;20045;-77
2023/06/27 09:33:43;;;;;;;5.00;2.42;;;;;;;;;;5053409;28;20099;-76
2023/06/27 09:36:11;;;;;;;4.85;2.35;;;;;;;;;;5060081;28;20044;-76
2023/06/27 09:38:38;;;;;;;5.22;2.28;;;;;;;;;;5061451;28;20080;-77
2023/06/27 09:41:08;;;;;;;5.88;2.28;;;;;;;;;;5053767;28;20136;-77
2023/06/27 09:43:36;;;;;;;3.38;2.03;;;;;;;;;;5057817;28;20072;-78
2023/06/27 09:46:04;;;;;;;4.35;2.25;;;;;;;;;;5061203;28;20037;-78
2023/06/27 09:48:32;;;;;;;4.45;2.30;;;;;;;;;;5064756;28;20049;-78
2023/06/27 09:50:59;;;;;;;5.07;2.08;;;;;;;;;;5049239;28;20075;-78
2023/06/27 09:53:33;;;;;;;7.20;2.63;;;;;;;;;;5058701;28;20055;-78
2023/06/27 09:56:01;;;;;;;6.25;2.65;;;;;;;;;;5073510;28;20048;-79
2023/06/27 09:58:29;;;;;;;5.30;2.60;;;;;;;;;;5061852;28;20068;-77
2023/06/27 10:01:03;;;;;;;8.20;2.90;;;;;;;;;;5051830;28;20041;-77
2023/06/27 10:03:30;;;;;;;7.28;3.38;;;;;;;;;;5053964;28;20045;-77
2023/06/27 10:05:57;;;;;;;4.00;1.90;;;;;;;;;;5052471;28;20048;-77
2023/06/27 10:08:53;;;;;;;4.80;2.35;;;;;;;;;;5054313;28;20041;-78
2023/06/27 10:11:20;;;;;;;4.68;2.70;;;;;;;;;;5027832;28;20423;-78
2023/06/27 10:13:47;;;;;;;4.78;2.28;;;;;;;;;;5056200;28;20045;-78
2023/06/27 10:16:17;;;;;;;5.47;2.20;;;;;;;;;;5058565;28;20484;-78
2023/06/27 10:18:44;;;;;;;5.05;2.17;;;;;;;;;;5059550;28;20079;-78
2023/06/27 10:21:12;;;;;;;5.93;2.22;;;;;;;;;;5058250;28;20116;-77
2023/06/27 10:23:42;;;;;;;4.93;2.20;;;;;;;;;;5047636;28;20108;-77
2023/06/27 10:26:11;;;;;;;3.58;1.90;;;;;;;;;;5033709;28;20042;-77
2023/06/27 10:28:50;;;;;;;4.60;2.15;;;;;;;;;;5046004;28;20124;-78
2023/06/27 10:31:50;;;;;;;3.90;1.90;;;;;;;;;;5053444;28;20420;-77
2023/06/27 10:34:21;;;;;;;4.70;2.15;;;;;;;;;;5053117;28;20045;-78
2023/06/27 10:36:52;;;;;;;4.75;2.65;;;;;;;;;;5054215;28;20049;-77
2023/06/27 10:39:26;;;;;;;4.40;2.20;;;;;;;;;;5060947;28;20049;-77
2023/06/27 10:42:01;;;;;;;6.32;2.83;;;;;;;;;;5067957;28;20053;-78
2023/06/27 10:44:28;;;;;;;8.43;4.97;;;;;;;;;;5074987;28;20046;-77
2023/06/27 10:47:27;;;;;;;9.73;5.57;;;;;;;;;;5074711;28;20496;-78
2023/06/27 10:49:54;;;;;;;4.13;2.40;;;;;;;;;;5053862;28;20125;-78
2023/06/27 10:52:22;;;;;;;6.57;2.47;;;;;;;;;;5055562;28;20518;-76
2023/06/27 10:55:22;;;;;;;5.70;2.60;;;;;;;;;;5055345;28;20041;-77
2023/06/27 10:57:56;;;;;;;6.88;3.20;;;;;;;;;;5054363;28;20065;-78
2023/06/27 11:00:25;;;;;;;8.13;2.78;;;;;;;;;;5054321;28;20048;-76
2023/06/27 11:02:55;;;;;;;4.75;2.47;;;;;;;;;;5051757;28;20646;-77
2023/06/27 11:05:43;;;;;;;3.80;2.40;;;;;;;;;;5052895;28;20049;-77
2023/06/27 11:08:13;;;;;;;3.75;2.75;;;;;;;;;;5054758;28;20124;-77
2023/06/27 11:10:50;;;;;;;5.20;2.53;;;;;;;;;;5051562;28;20525;-77
2023/06/27 11:13:22;;;;;;;5.43;3.35;;;;;;;;;;5056865;28;20069;-78
2023/06/27 11:15:53;;;;;;;6.28;3.67;;;;;;;;;;5057329;28;20044;-87
2023/06/27 11:18:22;;;;;;;4.38;2.92;;;;;;;;;;5063133;28;20041;-80
2023/06/27 11:20:49;;;;;;;6.38;2.80;;;;;;;;;;5063268;28;20204;-83
2023/06/27 11:23:18;;;;;;;5.43;3.38;;;;;;;;;;5049876;28;20053;-78
2023/06/27 11:25:46;;;;;;;6.57;3.22;;;;;;;;;;5062049;28;20079;-78
2023/06/27 11:28:15;;;;;;;5.70;3.13;;;;;;;;;;5052346;28;20045;-77
2023/06/27 11:30:44;;;;;;;5.55;2.80;;;;;;;;;;5053305;28;20493;-77
2023/06/27 11:33:13;;;;;;;6.03;2.83;;;;;;;;;;5059418;28;20045;-77
2023/06/27 11:35:41;;;;;;;7.68;3.42;;;;;;;;;;5067042;28;20036;-78
2023/06/27 11:38:08;;;;;;;7.25;3.35;;;;;;;;;;5051813;28;20040;-76
2023/06/27 11:40:36;;;;;;;4.85;2.67;;;;;;;;;;5051353;28;20076;-77
2023/06/27 11:43:04;;;;;;;6.15;3.70;;;;;;;;;;5049370;28;20037;-77
2023/06/27 11:45:31;;;;;;;8.80;5.28;;;;;;;;;;5055141;28;20048;-79
2023/06/27 11:48:00;;;;;;;5.82;2.67;;;;;;;;;;5065754;28;20049;-77
2023/06/27 11:50:27;;;;;;;6.38;4.13;;;;;;;;;;5062017;28;20120;-76
2023/06/27 11:52:57;;;;;;;5.43;3.08;;;;;;;;;;5073391;28;20072;-77
2023/06/27 11:55:23;;;;;;;7.85;3.30;;;;;;;;;;5053592;28;20052;-76
2023/06/27 11:57:54;;;;;;;5.82;2.65;;;;;;;;;;5052059;28;20124;-77
2023/06/27 12:00:23;;;;;;;7.00;2.50;;;;;;;;;;5060377;28;20045;-76
2023/06/27 12:02:51;;;;;;;4.70;2.80;;;;;;;;;;5052965;28;20052;-81
2023/06/27 12:05:21;;;;;;;5.72;2.88;;;;;;;;;;5051254;28;20474;-76
2023/06/27 12:08:04;;;;;;;7.13;2.67;;;;;;;;;;5046364;28;20492;-76
2023/06/27 12:10:31;;;;;;;4.13;2.38;;;;;;;;;;5041675;28;20511;-78
2023/06/27 12:12:58;;;;;;;5.95;2.40;;;;;;;;;;5059147;28;20048;-76
2023/06/27 12:15:24;;;;;;;4.10;2.22;;;;;;;;;;5053713;28;20496;-77
2023/06/27 12:17:59;;;;;;;4.25;2.05;;;;;;;;;;5046302;28;20393;-77
2023/06/27 12:20:39;;;;;;;6.15;2.65;;;;;;;;;;5048443;28;20716;-77
2023/06/27 12:23:06;;;;;;;;;;;;;;;;;;5059476;28;20048;-78
2023/06/27 12:25:32;;;;;;;4.78;2.20;;;;;;;;;;5060160;28;19924;-79
2023/06/27 12:27:59;;;;;;;4.25;2.38;;;;;;;;;;5056309;28;20055;-77
2023/06/27 12:30:25;;;;;;;5.32;2.58;;;;;;;;;;5049786;28;20484;-77
2023/06/27 12:32:52;;;;;;;6.28;3.00;;;;;;;;;;5050205;28;20048;-77
2023/06/27 12:35:18;;;;;;;4.10;2.15;;;;;;;;;;5051042;28;20111;-77
2023/06/27 12:37:47;;;;;;;6.95;2.97;;;;;;;;;;5046006;28;20084;-76
2023/06/27 12:40:15;;;;;;;6.00;2.83;;;;;;;;;;5054313;28;20581;-77
2023/06/27 12:42:42;;;;;;;6.30;2.35;;;;;;;;;;5070515;28;20051;-78
2023/06/27 12:45:10;;;;;;;5.82;2.63;;;;;;;;;;5070036;28;20055;-78
2023/06/27 12:47:41;;;;;;;7.43;2.90;;;;;;;;;;5067652;28;20131;-77
2023/06/27 12:50:09;;;;;;;5.28;2.53;;;;;;;;;;5058242;28;20588;-77
2023/06/27 12:52:35;;;;;;;4.97;2.33;;;;;;;;;;5060203;28;20138;-77
2023/06/27 12:55:04;;;;;;;5.35;2.65;;;;;;;;;;5054979;28;20555;-78
2023/06/27 12:57:31;;;;;;;8.70;2.72;;;;;;;;;;5051874;28;20049;-78
2023/06/27 12:59:58;;;;;;;5.47;2.80;;;;;;;;;;5061096;28;20131;-79
2023/06/27 13:02:24;;;;;;;7.53;2.90;;;;;;;;;;5070520;28;20053;-77
2023/06/27 13:04:51;;;;;;;6.68;2.50;;;;;;;;;;5051553;28;20099;-78
2023/06/27 13:07:19;;;;;;;4.05;2.40;;;;;;;;;;5058283;28;20048;-77
2023/06/27 13:09:46;;;;;;;6.40;2.55;;;;;;;;;;5061601;28;20048;-77
2023/06/27 13:12:14;;;;;;;6.28;2.53;;;;;;;;;;5070138;28;20078;-77
2023/06/27 13:14:41;;;;;;;4.38;2.60;;;;;;;;;;5067236;28;20147;-79
2023/06/27 13:17:08;;;;;;;4.57;2.30;;;;;;;;;;5046739;28;20214;-79
2023/06/27 13:19:35;;;;;;;4.30;2.35;;;;;;;;;;5049724;28;20040;-78
2023/06/27 13:22:02;;;;;;;4.78;2.50;;;;;;;;;;5059829;28;20515;-77
2023/06/27 13:24:29;;;;;;;7.93;3.08;;;;;;;;;;5068953;28;20108;-78
2023/06/27 13:26:55;;;;;;;5.03;2.38;;;;;;;;;;5053179;28;20239;-77
2023/06/27 13:29:23;;;;;;;5.20;3.15;;;;;;;;;;5076404;28;20076;-78
2023/06/27 13:31:50;;;;;;;7.75;2.85;;;;;;;;;;5065349;28;20512;-77
2023/06/27 13:34:17;;;;;;;4.68;2.47;;;;;;;;;;5057442;28;20084;-77
2023/06/27 13:36:43;;;;;;;7.55;3.00;;;;;;;;;;5063815;28;20531;-77
2023/06/27 13:39:14;;;;;;;10.73;5.22;;;;;;;;;;5057017;28;20104;-78
2023/06/27 13:41:41;;;;;;;6.90;3.25;;;;;;;;;;5055918;28;20396;-78
2023/06/27 13:44:09;;;;;;;8.55;3.10;;;;;;;;;;5058094;28;20080;-78
2023/06/27 13:46:37;;;;;;;5.50;2.53;;;;;;;;;;5063700;28;20045;-77
2023/06/27 13:49:09;;;;;;;4.90;2.58;;;;;;;;;;5057335;28;20059;-77
2023/06/27 13:51:35;;;;;;;5.65;2.38;;;;;;;;;;5053558;28;20144;-78
2023/06/27 13:54:03;;;;;;;6.70;2.97;;;;;;;;;;5058000;28;20105;-79
2023/06/27 13:56:29;;;;;;;5.10;2.45;;;;;;;;;;5068055;28;20052;-77
2023/06/27 13:59:02;;;;;;;5.75;2.85;;;;;;;;;;5053442;28;20132;-77
2023/06/27 14:01:28;;;;;;;3.75;2.28;;;;;;;;;;5053788;28;20063;-78
2023/06/27 14:04:03;;;;;;;5.20;2.47;;;;;;;;;;5053890;28;20072;-77
2023/06/27 14:06:30;;;;;;;4.25;2.55;;;;;;;;;;5049298;28;20088;-77
2023/06/27 14:08:57;;;;;;;4.97;2.38;;;;;;;;;;5052978;28;20043;-77
2023/06/27 14:11:23;;;;;;;5.13;2.45;;;;;;;;;;5053332;28;20045;-77
2023/06/27 14:13:51;;;;;;;4.38;2.35;;;;;;;;;;5053580;28;20052;-77
2023/06/27 14:16:18;;;;;;;3.92;2.40;;;;;;;;;;5052480;28;20053;-77
2023/06/27 14:18:45;;;;;;;6.68;2.70;;;;;;;;;;5053649;28;20095;-77
2023/06/27 14:21:16;;;;;;;4.78;2.40;;;;;;;;;;5051406;28;20072;-77
2023/06/27 14:23:43;;;;;;;6.97;2.35;;;;;;;;;;5051132;28;20517;-77
2023/06/27 14:26:11;;;;;;;5.55;2.60;;;;;;;;;;5057637;28;20048;-77
2023/06/27 14:28:37;;;;;;;5.35;2.35;;;;;;;;;;5055074;28;20067;-79
2023/06/27 14:31:04;;;;;;;4.50;2.33;;;;;;;;;;5056127;28;20045;-76
2023/06/27 14:33:31;;;;;;;5.18;2.30;;;;;;;;;;5062147;28;20044;-78
2023/06/27 14:35:57;;;;;;;5.10;2.50;;;;;;;;;;5062760;28;20040;-78
2023/06/27 14:38:26;;;;;;;6.38;2.55;;;;;;;;;;5054376;28;20129;-76
2023/06/27 14:40:53;;;;;;;5.10;2.38;;;;;;;;;;5064224;28;20136;-80
2023/06/27 14:43:20;;;;;;;4.40;2.00;;;;;;;;;;5063383;28;20730;-78
2023/06/27 14:45:46;;;;;;;5.10;2.20;;;;;;;;;;5054220;28;20046;-78
2023/06/27 14:48:14;;;;;;;4.65;2.33;;;;;;;;;;5050887;28;20452;-77
2023/06/27 14:50:41;;;;;;;5.97;2.30;;;;;;;;;;5052821;28;20094;-78